createdAt,value
2019-05-14T00:01:42.241Z,8.20
2019-05-14T00:06:46.323Z,8.20
2019-05-14T00:11:51.277Z,8.20
2019-05-14T00:16:55.403Z,8.10
2019-05-14T00:22:02.261Z,8.00
2019-05-14T00:27:11.517Z,7.70
2019-05-14T00:32:15.904Z,7.70
2019-05-14T00:37:21.727Z,7.60
2019-05-14T00:42:28.334Z,7.60
2019-05-14T00:47:36.927Z,7.60
2019-05-14T00:52:44.287Z,7.80
2019-05-14T00:57:46.660Z,7.80
2019-05-14T01:02:51.810Z,7.70
2019-05-14T01:07:56.300Z,7.70
2019-05-14T01:13:01.256Z,7.70
2019-05-14T01:18:05.827Z,7.70
2019-05-14T01:23:11.544Z,7.80
2019-05-14T01:28:15.627Z,7.70
2019-05-14T01:33:21.217Z,7.80
2019-05-14T01:38:25.020Z,7.70
2019-05-14T01:43:31.279Z,7.50
2019-05-14T01:48:34.504Z,7.40
2019-05-14T01:53:41.689Z,7.40
2019-05-14T01:58:45.323Z,7.30
2019-05-14T02:03:51.605Z,7.20
2019-05-14T02:08:54.707Z,7.20
2019-05-14T02:13:58.582Z,7.10
2019-05-14T02:19:02.452Z,6.90
2019-05-14T02:24:06.320Z,6.80
2019-05-14T02:29:12.295Z,6.80
2019-05-14T02:34:15.709Z,6.80
2019-05-14T02:39:19.826Z,6.70
2019-05-14T02:44:23.757Z,6.60
2019-05-14T02:49:29.945Z,6.60
2019-05-14T02:54:33.198Z,6.70
2019-05-14T02:59:39.430Z,6.60
2019-05-14T03:04:42.594Z,6.50
2019-05-14T03:09:46.467Z,6.50
2019-05-14T03:14:50.385Z,6.40
2019-05-14T03:19:54.290Z,6.40
2019-05-14T03:24:59.815Z,6.30
2019-05-14T03:30:03.892Z,6.20
2019-05-14T03:35:13.151Z,6.20
2019-05-14T03:40:13.677Z,6.20
2019-05-14T03:45:19.511Z,6.30
2019-05-14T03:50:23.073Z,6.30
2019-05-14T03:55:29.258Z,6.50
2019-05-14T04:00:49.968Z,6.60
2019-05-14T04:05:53.987Z,6.50
2019-05-14T04:10:59.436Z,6.50
2019-05-14T04:16:04.862Z,6.60
2019-05-14T04:21:10.334Z,6.60
2019-05-14T04:26:15.968Z,6.60
2019-05-14T04:31:21.055Z,6.70
2019-05-14T04:36:24.942Z,6.80
2019-05-14T04:41:29.893Z,7.00
2019-05-14T04:46:34.326Z,7.00
2019-05-14T04:51:39.656Z,7.00
2019-05-14T04:56:43.856Z,7.10
2019-05-14T05:01:49.380Z,7.30
2019-05-14T05:06:53.348Z,7.30
2019-05-14T05:11:59.795Z,7.40
2019-05-14T05:17:02.830Z,7.50
2019-05-14T05:22:08.046Z,7.50
2019-05-14T05:27:12.163Z,7.60
2019-05-14T05:32:16.096Z,7.80
2019-05-14T05:37:20.324Z,7.90
2019-05-14T05:42:24.225Z,8.00
2019-05-14T05:47:28.733Z,8.10
2019-05-14T05:52:32.846Z,8.20
2019-05-14T05:57:38.975Z,8.40
2019-05-14T06:02:42.354Z,8.70
2019-05-14T06:07:48.202Z,8.80
2019-05-14T06:12:51.838Z,8.90
2019-05-14T06:18:11.604Z,9.10
2019-05-14T06:23:01.260Z,9.20
2019-05-14T06:28:05.158Z,9.40
2019-05-14T06:33:09.362Z,9.60
2019-05-14T06:38:13.309Z,9.80
2019-05-14T06:43:18.956Z,9.90
2019-05-14T06:48:30.657Z,10.20
2019-05-14T06:53:29.012Z,10.20
2019-05-14T06:58:33.238Z,10.30
2019-05-14T07:03:38.244Z,10.30
2019-05-14T07:08:42.362Z,10.50
2019-05-14T07:13:48.847Z,10.70
2019-05-14T07:18:54.111Z,10.90
2019-05-14T07:23:59.341Z,10.80
2019-05-14T07:29:03.011Z,10.80
2019-05-14T07:34:08.940Z,11.00
2019-05-14T07:39:12.424Z,11.20
2019-05-14T07:44:18.289Z,11.40
2019-05-14T07:49:21.976Z,11.50
2019-05-14T07:54:28.156Z,11.60
2019-05-14T07:59:31.316Z,11.60
2019-05-14T08:04:35.213Z,11.50
2019-05-14T08:09:39.193Z,11.40
2019-05-14T08:14:57.990Z,11.40
2019-05-14T08:19:49.309Z,11.30
2019-05-14T08:24:53.264Z,11.40
2019-05-14T08:29:58.931Z,11.30
2019-05-14T08:35:02.677Z,11.30
2019-05-14T08:40:09.438Z,11.20
2019-05-14T08:45:14.645Z,11.10
2019-05-14T08:50:19.263Z,11.10
2019-05-14T08:55:23.134Z,11.30
2019-05-14T09:00:28.676Z,11.40
2019-05-14T09:05:32.620Z,11.40
2019-05-14T09:10:36.525Z,11.50
2019-05-14T09:15:40.473Z,11.50
2019-05-14T09:20:44.409Z,11.40
2019-05-14T09:25:53.061Z,11.30
2019-05-14T09:30:53.919Z,11.20
2019-05-14T09:36:13.174Z,11.20
2019-05-14T09:41:11.365Z,11.00
2019-05-14T09:46:09.180Z,10.90
2019-05-14T09:51:13.208Z,10.90
2019-05-14T09:56:18.590Z,10.90
2019-05-14T10:01:22.670Z,10.90
2019-05-14T10:06:28.432Z,10.90
2019-05-14T10:11:32.166Z,10.90
2019-05-14T10:16:38.362Z,10.90
2019-05-14T10:21:41.677Z,10.90
2019-05-14T10:26:48.248Z,10.80
2019-05-14T10:31:51.174Z,10.70
2019-05-14T10:36:55.108Z,10.80
2019-05-14T10:41:59.001Z,10.80
2019-05-14T10:47:02.935Z,10.80
2019-05-14T10:52:08.256Z,10.90
2019-05-14T10:57:12.410Z,10.80
2019-05-14T11:02:18.386Z,10.80
2019-05-14T11:07:21.960Z,10.80
2019-05-14T11:12:25.886Z,10.90
2019-05-14T11:17:29.786Z,10.90
2019-05-14T11:22:33.744Z,10.90
2019-05-14T11:27:38.852Z,10.90
2019-05-14T11:32:43.119Z,10.80
2019-05-14T11:37:48.028Z,10.80
2019-05-14T11:42:52.115Z,10.90
2019-05-14T11:47:58.196Z,11.00
2019-05-14T11:53:01.786Z,11.00
2019-05-14T11:58:08.602Z,11.00
2019-05-14T12:03:11.840Z,11.10
2019-05-14T12:08:18.371Z,11.00
2019-05-14T12:13:21.836Z,11.00
2019-05-14T12:18:25.790Z,11.00
2019-05-14T12:23:29.939Z,11.00
2019-05-14T12:28:34.139Z,11.10
2019-05-14T12:33:39.562Z,11.20
2019-05-14T12:38:43.592Z,11.30
2019-05-14T12:43:47.443Z,11.40
2019-05-14T12:48:51.321Z,11.40
2019-05-14T12:53:55.213Z,11.50
2019-05-14T12:58:59.129Z,11.60
2019-05-14T13:04:03.249Z,11.60
2019-05-14T13:09:09.385Z,11.60
2019-05-14T13:14:12.988Z,11.60
2019-05-14T13:19:19.097Z,11.50
2019-05-14T13:24:23.025Z,11.40
2019-05-14T13:29:28.916Z,11.30
2019-05-14T13:34:32.461Z,11.20
2019-05-14T13:39:39.615Z,11.10
2019-05-14T13:44:41.878Z,11.10
2019-05-14T13:49:48.496Z,11.20
2019-05-14T13:54:51.383Z,11.20
2019-05-14T13:59:55.268Z,11.20
2019-05-14T14:04:59.375Z,11.20
2019-05-14T14:10:05.249Z,11.20
2019-05-14T14:15:10.418Z,11.20
2019-05-14T14:20:14.530Z,11.30
2019-05-14T14:25:18.460Z,11.30
2019-05-14T14:30:22.410Z,11.30
2019-05-14T14:35:30.210Z,11.30
2019-05-14T14:40:31.912Z,11.40
2019-05-14T14:45:35.935Z,11.50
2019-05-14T14:50:39.846Z,11.60
2019-05-14T14:55:44.940Z,11.60
2019-05-14T15:00:49.809Z,11.60
2019-05-14T15:05:53.809Z,11.50
2019-05-14T15:10:59.439Z,11.50
2019-05-14T15:16:03.636Z,11.50
2019-05-14T15:21:09.803Z,11.60
2019-05-14T15:26:13.475Z,11.60
2019-05-14T15:31:19.088Z,11.70
2019-05-14T15:36:23.351Z,11.60
2019-05-14T15:41:29.695Z,11.60
2019-05-14T15:46:32.977Z,11.70
2019-05-14T15:51:36.906Z,11.70
2019-05-14T15:56:40.834Z,11.70
2019-05-14T16:01:44.798Z,11.70
2019-05-14T16:06:48.955Z,11.70
2019-05-14T16:11:53.023Z,11.70
2019-05-14T16:16:56.975Z,11.60
2019-05-14T16:22:01.012Z,11.60
2019-05-14T16:27:04.922Z,11.60
2019-05-14T16:32:08.978Z,11.60
2019-05-14T16:37:14.524Z,11.50
2019-05-14T16:42:20.565Z,11.50
2019-05-14T16:47:24.077Z,11.50
2019-05-14T16:52:28.704Z,11.60
2019-05-14T16:57:32.805Z,11.60
2019-05-14T17:02:36.725Z,11.60
2019-05-14T17:07:40.663Z,11.60
2019-05-14T17:12:52.427Z,11.60
2019-05-14T17:17:50.158Z,11.60
2019-05-14T17:22:54.107Z,11.70
2019-05-14T17:27:59.309Z,11.60
2019-05-14T17:33:03.494Z,11.60
2019-05-14T17:38:09.256Z,11.60
2019-05-14T17:43:12.906Z,11.50
2019-05-14T17:48:18.296Z,11.50
2019-05-14T17:53:22.489Z,11.50
2019-05-14T17:58:28.599Z,11.40
2019-05-14T18:03:31.982Z,11.30
2019-05-14T18:08:35.926Z,11.30
2019-05-14T18:13:39.781Z,11.30
2019-05-14T18:18:43.815Z,11.20
2019-05-14T18:23:49.145Z,11.20
2019-05-14T18:28:53.468Z,11.20
2019-05-14T18:33:58.758Z,11.10
2019-05-14T18:39:02.981Z,11.10
2019-05-14T18:44:08.415Z,11.00
2019-05-14T18:49:12.437Z,11.00
2019-05-14T18:54:16.321Z,11.00
2019-05-14T18:59:21.380Z,10.90
2019-05-14T19:04:27.842Z,10.90
2019-05-14T19:09:31.048Z,10.90
2019-05-14T19:14:35.304Z,10.90
2019-05-14T19:19:39.182Z,10.80
2019-05-14T19:24:43.062Z,10.80
2019-05-14T19:29:48.436Z,10.70
2019-05-14T19:34:52.695Z,10.80
2019-05-14T19:39:58.590Z,10.70
2019-05-14T19:45:02.191Z,10.70
2019-05-14T19:50:08.953Z,10.70
2019-05-14T19:55:13.194Z,10.70
2019-05-14T20:00:20.034Z,10.70
2019-05-14T20:05:23.925Z,10.60
2019-05-14T20:10:29.164Z,10.60
2019-05-14T20:15:34.880Z,10.60
2019-05-14T20:20:39.342Z,10.50
2019-05-14T20:25:43.276Z,10.50
2019-05-14T20:30:49.273Z,10.50
2019-05-14T20:35:52.947Z,10.50
2019-05-14T20:40:58.138Z,10.60
2019-05-14T20:46:02.126Z,10.50
2019-05-14T20:51:08.939Z,10.50
2019-05-14T20:56:11.837Z,10.50
2019-05-14T21:01:18.238Z,10.50
2019-05-14T21:06:21.425Z,10.50
2019-05-14T21:11:25.405Z,10.40
2019-05-14T21:16:29.459Z,10.40
2019-05-14T21:21:33.406Z,10.40
2019-05-14T21:26:39.849Z,10.40
2019-05-14T21:31:42.916Z,10.40
2019-05-14T21:36:46.958Z,10.30
2019-05-14T21:41:50.882Z,10.40
2019-05-14T21:46:54.841Z,10.30
2019-05-14T21:51:58.866Z,10.30
2019-05-14T21:57:02.786Z,10.20
2019-05-14T22:02:07.912Z,10.30
2019-05-14T22:07:11.827Z,10.30
2019-05-14T22:12:15.749Z,10.30
2019-05-14T22:17:19.694Z,10.30
2019-05-14T22:22:23.597Z,10.20
2019-05-14T22:27:28.142Z,10.20
2019-05-14T22:32:32.149Z,10.20
2019-05-14T22:37:36.072Z,10.20
2019-05-14T22:42:39.990Z,10.20
2019-05-14T22:47:43.932Z,10.10
2019-05-14T22:52:48.704Z,10.10
2019-05-14T22:57:52.762Z,10.10
2019-05-14T23:02:56.677Z,10.10
2019-05-14T23:08:00.626Z,10.10
2019-05-14T23:13:04.637Z,10.20
2019-05-14T23:18:08.721Z,10.10
2019-05-14T23:23:12.784Z,10.10
2019-05-14T23:28:19.055Z,10.10
2019-05-14T23:33:22.190Z,10.10
2019-05-14T23:38:28.964Z,10.00
2019-05-14T23:43:32.561Z,10.10
2019-05-14T23:48:38.863Z,10.20
2019-05-14T23:53:41.980Z,10.10
2019-05-14T23:58:54.908Z,10.10
